createdAt,value
2019-04-05T00:00:13.915Z,96748.03
2019-04-05T00:02:44.755Z,96743.08
2019-04-05T00:05:16.244Z,96744.50
2019-04-05T00:07:47.090Z,96745.16
2019-04-05T00:10:18.046Z,96747.13
2019-04-05T00:12:48.954Z,96748.80
2019-04-05T00:15:19.856Z,96746.96
2019-04-05T00:17:50.723Z,96747.55
2019-04-05T00:20:21.596Z,96745.34
2019-04-05T00:22:52.438Z,96745.05
2019-04-05T00:25:23.288Z,96751.97
2019-04-05T00:27:54.158Z,96755.78
2019-04-05T00:30:25.114Z,96750.97
2019-04-05T00:32:55.990Z,96737.16
2019-04-05T00:35:26.888Z,96737.52
2019-04-05T00:37:57.714Z,96736.67
2019-04-05T00:40:28.578Z,96731.61
2019-04-05T00:42:59.502Z,96736.00
2019-04-05T00:45:30.446Z,96736.45
2019-04-05T00:48:01.431Z,96736.84
2019-04-05T00:50:32.305Z,96735.32
2019-04-05T00:53:03.402Z,96739.04
2019-04-05T00:55:36.927Z,96735.68
2019-04-05T00:58:08.008Z,96736.62
2019-04-05T01:00:38.983Z,96733.13
2019-04-05T01:03:09.851Z,96731.16
2019-04-05T01:05:41.030Z,96736.62
2019-04-05T01:08:11.954Z,96734.03
2019-04-05T01:10:42.972Z,96745.66
2019-04-05T01:13:16.937Z,96742.62
2019-04-05T01:15:47.797Z,96747.31
2019-04-05T01:18:18.730Z,96748.80
2019-04-05T01:20:49.939Z,96743.98
2019-04-05T01:23:21.755Z,96744.73
2019-04-05T01:25:54.168Z,96761.02
2019-04-05T01:28:25.112Z,96759.50
2019-04-05T01:30:56.007Z,96763.19
2019-04-05T01:33:27.219Z,96771.23
2019-04-05T01:35:58.051Z,96777.25
2019-04-05T01:38:29.256Z,96774.15
2019-04-05T01:41:00.668Z,96782.81
2019-04-05T01:43:31.506Z,96779.90
2019-04-05T01:46:02.816Z,96781.19
2019-04-05T01:48:33.731Z,96788.11
2019-04-05T01:51:04.831Z,96790.34
2019-04-05T01:53:35.686Z,96796.12
2019-04-05T01:56:06.619Z,96794.26
2019-04-05T01:58:37.508Z,96796.75
2019-04-05T02:01:08.311Z,96786.50
2019-04-05T02:03:39.239Z,96790.61
2019-04-05T02:06:10.093Z,96789.77
2019-04-05T02:08:41.281Z,96792.87
2019-04-05T02:11:12.207Z,96786.02
2019-04-05T02:13:43.183Z,96784.36
2019-04-05T02:16:14.139Z,96782.52
2019-04-05T02:18:45.051Z,96785.20
2019-04-05T02:21:15.921Z,96779.25
2019-04-05T02:23:46.852Z,96780.48
2019-04-05T02:26:17.770Z,96783.43
2019-04-05T02:28:48.627Z,96781.33
2019-04-05T02:31:19.466Z,96784.36
2019-04-05T02:33:50.321Z,96788.98
2019-04-05T02:36:21.189Z,96793.77
2019-04-05T02:38:52.024Z,96783.81
2019-04-05T02:41:26.132Z,96779.19
2019-04-05T02:43:58.604Z,96774.70
2019-04-05T02:46:31.912Z,96767.11
2019-04-05T02:49:04.503Z,96764.70
2019-04-05T02:51:38.231Z,96771.30
2019-04-05T02:54:09.913Z,96774.11
2019-04-05T02:56:41.206Z,96777.86
2019-04-05T02:59:13.493Z,96770.01
2019-04-05T03:01:45.295Z,96771.63
2019-04-05T03:04:16.229Z,96771.40
2019-04-05T03:06:48.675Z,96778.77
2019-04-05T03:09:20.567Z,96777.47
2019-04-05T03:11:51.977Z,96782.64
2019-04-05T03:14:23.666Z,96782.48
2019-04-05T03:16:56.486Z,96785.46
2019-04-05T03:19:30.377Z,96794.13
2019-04-05T03:22:04.279Z,96795.74
2019-04-05T03:24:38.150Z,96793.32
2019-04-05T03:27:12.070Z,96790.67
2019-04-05T03:29:43.644Z,96799.78
2019-04-05T03:32:15.947Z,96801.30
2019-04-05T03:34:47.284Z,96807.70
2019-04-05T03:37:18.217Z,96806.64
2019-04-05T03:39:49.285Z,96806.19
2019-04-05T03:42:20.885Z,96805.28
2019-04-05T03:44:51.856Z,96802.57
2019-04-05T03:47:22.877Z,96799.53
2019-04-05T03:49:53.781Z,96797.91
2019-04-05T03:52:24.784Z,96792.03
2019-04-05T03:54:55.706Z,96796.45
2019-04-05T03:57:26.594Z,96794.00
2019-04-05T03:59:57.686Z,96799.06
2019-04-05T04:02:28.853Z,96810.70
2019-04-05T04:04:59.773Z,96817.28
2019-04-05T04:07:30.711Z,96815.31
2019-04-05T04:10:01.800Z,96813.56
2019-04-05T04:12:33.268Z,96814.17
2019-04-05T04:15:15.141Z,96820.40
2019-04-05T04:17:46.614Z,96820.34
2019-04-05T04:20:26.307Z,96817.03
2019-04-05T04:22:57.515Z,96820.91
2019-04-05T04:25:29.030Z,96827.14
2019-04-05T04:28:00.087Z,96823.62
2019-04-05T04:30:31.771Z,96823.38
2019-04-05T04:33:03.426Z,96824.05
2019-04-05T04:35:34.604Z,96826.63
2019-04-05T04:38:07.247Z,96826.30
2019-04-05T04:40:38.385Z,96825.79
2019-04-05T04:43:09.871Z,96830.18
2019-04-05T04:45:41.098Z,96839.28
2019-04-05T04:48:12.683Z,96835.59
2019-04-05T04:50:44.383Z,96839.01
2019-04-05T04:53:16.660Z,96843.73
2019-04-05T04:55:47.591Z,96838.37
2019-04-05T04:58:20.270Z,96845.56
2019-04-05T05:00:51.512Z,96840.00
2019-04-05T05:03:22.705Z,96839.22
2019-04-05T05:05:53.722Z,96846.79
2019-04-05T05:08:24.775Z,96851.24
2019-04-05T05:10:55.760Z,96849.38
2019-04-05T05:13:26.883Z,96852.41
2019-04-05T05:15:58.169Z,96852.47
2019-04-05T05:18:29.323Z,96852.47
2019-04-05T05:21:03.034Z,96847.76
2019-04-05T05:23:34.022Z,96850.34
2019-04-05T05:26:05.536Z,96852.59
2019-04-05T05:28:36.849Z,96853.77
2019-04-05T05:31:07.940Z,96853.05
2019-04-05T05:33:39.090Z,96859.45
2019-04-05T05:36:10.737Z,96855.18
2019-04-05T05:38:41.913Z,96866.20
2019-04-05T05:41:12.790Z,96860.73
2019-04-05T05:43:43.702Z,96864.80
2019-04-05T05:46:15.679Z,96868.61
2019-04-05T05:48:46.532Z,96866.36
2019-04-05T05:51:17.561Z,96866.59
2019-04-05T05:53:48.489Z,96863.63
2019-04-05T05:56:19.386Z,96861.31
2019-04-05T05:58:50.284Z,96865.12
2019-04-05T06:01:21.138Z,96863.59
2019-04-05T06:03:52.004Z,96863.05
2019-04-05T06:06:22.858Z,96862.55
2019-04-05T06:08:53.731Z,96868.34
2019-04-05T06:14:03.829Z,96869.00
2019-04-05T06:16:45.842Z,96870.20
2019-04-05T06:19:07.528Z,96878.32
2019-04-05T06:21:38.563Z,96877.03
2019-04-05T06:24:09.524Z,96873.56
2019-04-05T06:26:40.485Z,96865.03
2019-04-05T06:29:11.976Z,96864.83
2019-04-05T06:31:42.989Z,96865.84
2019-04-05T06:34:13.980Z,96864.03
2019-04-05T06:36:45.036Z,96861.80
2019-04-05T06:39:16.214Z,96864.03
2019-04-05T06:41:47.122Z,96861.42
2019-04-05T06:44:18.459Z,96864.92
2019-04-05T06:46:49.483Z,96865.63
2019-04-05T06:49:20.508Z,96867.38
2019-04-05T06:51:51.395Z,96866.31
2019-04-05T06:54:22.624Z,96867.22
2019-04-05T06:56:53.621Z,96863.56
2019-04-05T06:59:24.553Z,96869.53
2019-04-05T07:01:55.566Z,96866.88
2019-04-05T07:04:26.561Z,96867.79
2019-04-05T07:06:57.652Z,96870.16
2019-04-05T07:09:28.631Z,96863.64
2019-04-05T07:11:59.802Z,96867.50
2019-04-05T07:14:31.143Z,96859.69
2019-04-05T07:17:02.304Z,96858.88
2019-04-05T07:19:33.433Z,96856.23
2019-04-05T07:22:04.900Z,96856.81
2019-04-05T07:24:41.183Z,96860.13
2019-04-05T07:27:12.163Z,96866.92
2019-04-05T07:29:43.168Z,96861.36
2019-04-05T07:32:14.107Z,96867.20
2019-04-05T07:34:45.137Z,96871.14
2019-04-05T07:37:16.271Z,96873.89
2019-04-05T07:39:47.298Z,96868.10
2019-04-05T07:42:18.291Z,96877.19
2019-04-05T07:44:49.270Z,96881.27
2019-04-05T07:47:20.168Z,96875.87
2019-04-05T07:49:51.434Z,96886.77
2019-04-05T07:52:22.580Z,96886.41
2019-04-05T07:54:53.912Z,96886.99
2019-04-05T07:57:25.176Z,96889.16
2019-04-05T07:59:56.224Z,96883.31
2019-04-05T08:02:27.282Z,96884.86
2019-04-05T08:04:58.424Z,96889.30
2019-04-05T08:07:32.216Z,96899.72
2019-04-05T08:10:04.057Z,96892.27
2019-04-05T08:12:36.532Z,96890.30
2019-04-05T08:15:07.872Z,96891.78
2019-04-05T08:17:38.914Z,96904.18
2019-04-05T08:20:09.935Z,96893.30
2019-04-05T08:22:41.212Z,96890.28
2019-04-05T08:25:12.332Z,96891.33
2019-04-05T08:27:43.366Z,96889.73
2019-04-05T08:30:14.830Z,96897.30
2019-04-05T08:32:47.590Z,96895.58
2019-04-05T08:35:18.593Z,96906.09
2019-04-05T08:37:49.538Z,96900.70
2019-04-05T08:40:20.590Z,96900.78
2019-04-05T08:42:51.600Z,96904.27
2019-04-05T08:45:22.625Z,96913.19
2019-04-05T08:47:53.713Z,96923.06
2019-04-05T08:50:24.675Z,96924.81
2019-04-05T08:52:55.639Z,96929.86
2019-04-05T08:55:29.960Z,96919.13
2019-04-05T08:58:00.992Z,96923.09
2019-04-05T09:00:32.032Z,96924.43
2019-04-05T09:03:03.067Z,96922.09
2019-04-05T09:05:34.165Z,96919.41
2019-04-05T09:08:05.308Z,96919.86
2019-04-05T09:10:36.430Z,96912.09
2019-04-05T09:13:07.423Z,96913.58
2019-04-05T09:15:38.377Z,96912.20
2019-04-05T09:18:09.492Z,96920.44
2019-04-05T09:20:40.334Z,96915.64
2019-04-05T09:23:11.383Z,96922.52
2019-04-05T09:25:42.344Z,96922.84
2019-04-05T09:28:13.389Z,96922.91
2019-04-05T09:30:44.400Z,96921.14
2019-04-05T09:33:15.585Z,96932.18
2019-04-05T09:35:46.562Z,96929.72
2019-04-05T09:38:18.743Z,96935.04
2019-04-05T09:40:50.171Z,96932.41
2019-04-05T09:43:21.364Z,96936.37
2019-04-05T09:45:52.690Z,96944.13
2019-04-05T09:48:23.689Z,96944.37
2019-04-05T09:51:03.435Z,96946.38
2019-04-05T09:53:38.120Z,96947.63
2019-04-05T09:56:09.350Z,96943.16
2019-04-05T09:58:42.267Z,96941.33
2019-04-05T10:01:13.606Z,96947.91
2019-04-05T10:03:44.751Z,96948.60
2019-04-05T10:06:21.904Z,96948.72
2019-04-05T10:08:52.862Z,96941.03
2019-04-05T10:11:24.099Z,96945.16
2019-04-05T10:13:55.096Z,96941.12
2019-04-05T10:16:33.073Z,96940.17
2019-04-05T10:19:04.849Z,96938.72
2019-04-05T10:21:35.894Z,96941.27
2019-04-05T10:24:06.929Z,96940.80
2019-04-05T10:26:37.979Z,96939.52
2019-04-05T10:29:08.915Z,96945.97
2019-04-05T10:31:40.081Z,96947.19
2019-04-05T10:34:11.049Z,96941.19
2019-04-05T10:36:42.204Z,96940.31
2019-04-05T10:39:13.197Z,96928.25
2019-04-05T10:41:44.283Z,96925.00
2019-04-05T10:44:17.991Z,96915.00
2019-04-05T10:46:49.039Z,96920.34
2019-04-05T10:49:25.133Z,96922.06
2019-04-05T10:51:56.129Z,96921.17
2019-04-05T10:54:27.439Z,96913.08
2019-04-05T10:57:00.157Z,96915.53
2019-04-05T10:59:33.082Z,96913.19
2019-04-05T11:02:04.049Z,96912.56
2019-04-05T11:04:38.027Z,96907.14
2019-04-05T11:07:09.023Z,96911.05
2019-04-05T11:09:40.324Z,96908.72
2019-04-05T11:12:11.669Z,96900.44
2019-04-05T11:14:45.607Z,96906.27
2019-04-05T11:17:16.523Z,96902.94
2019-04-05T11:19:47.623Z,96902.08
2019-04-05T11:22:20.951Z,96898.25
2019-04-05T11:24:51.723Z,96892.34
2019-04-05T11:27:22.799Z,96893.27
2019-04-05T11:29:53.849Z,96890.80
2019-04-05T11:32:26.540Z,96890.98
2019-04-05T11:34:57.548Z,96890.49
2019-04-05T11:37:28.915Z,96888.78
2019-04-05T11:39:59.983Z,96894.30
2019-04-05T11:42:33.107Z,96886.08
2019-04-05T11:45:06.542Z,96884.94
2019-04-05T11:47:41.143Z,96882.47
2019-04-05T11:50:13.113Z,96879.88
2019-04-05T11:52:44.539Z,96879.80
2019-04-05T11:55:18.180Z,96878.64
2019-04-05T11:57:48.657Z,96879.70
2019-04-05T12:00:21.421Z,96874.20
2019-04-05T12:02:54.024Z,96868.17
2019-04-05T12:05:26.988Z,96865.25
2019-04-05T12:08:00.972Z,96867.31
2019-04-05T12:10:32.112Z,96864.47
2019-04-05T12:13:03.412Z,96863.23
2019-04-05T12:15:35.696Z,96862.36
2019-04-05T12:18:07.401Z,96862.36
2019-04-05T12:20:49.094Z,96862.34
2019-04-05T12:23:11.339Z,96856.79
2019-04-05T12:25:42.316Z,96855.95
2019-04-05T12:28:13.277Z,96850.83
2019-04-05T12:30:46.243Z,96846.22
2019-04-05T12:33:19.572Z,96839.76
2019-04-05T12:35:53.017Z,96830.92
2019-04-05T12:38:31.564Z,96824.69
2019-04-05T12:41:04.744Z,96813.50
2019-04-05T12:43:37.622Z,96811.35
2019-04-05T12:46:08.706Z,96809.69
2019-04-05T12:48:39.841Z,96812.31
2019-04-05T12:51:13.149Z,96810.67
2019-04-05T12:53:43.628Z,96819.23
2019-04-05T12:56:14.621Z,96814.66
2019-04-05T12:58:45.576Z,96820.36
2019-04-05T13:01:16.724Z,96825.03
2019-04-05T13:03:51.093Z,96825.81
2019-04-05T13:06:21.866Z,96829.97
2019-04-05T13:08:53.747Z,96829.50
2019-04-05T13:11:45.480Z,96833.82
2019-04-05T13:14:35.852Z,96834.73
2019-04-05T13:17:31.885Z,96840.73
2019-04-05T13:20:31.493Z,96826.14
2019-04-05T13:23:06.407Z,96826.36
2019-04-05T13:25:41.021Z,96822.83
2019-04-05T13:28:18.948Z,96821.42
2019-04-05T13:30:50.157Z,96814.34
2019-04-05T13:33:23.597Z,96815.47
2019-04-05T13:35:55.569Z,96811.72
2019-04-05T13:38:27.522Z,96800.39
2019-04-05T13:41:02.192Z,96793.55
2019-04-05T13:43:33.314Z,96789.55
2019-04-05T13:46:05.818Z,96791.67
2019-04-05T13:48:39.680Z,96796.48
2019-04-05T13:51:13.090Z,96799.44
2019-04-05T13:53:44.232Z,96793.28
2019-04-05T13:56:18.066Z,96791.00
2019-04-05T13:58:49.062Z,96792.17
2019-04-05T14:01:20.575Z,96781.92
2019-04-05T14:03:52.252Z,96787.45
2019-04-05T14:06:23.698Z,96779.42
2019-04-05T14:08:54.673Z,96786.78
2019-04-05T14:11:26.093Z,96784.73
2019-04-05T14:13:57.174Z,96787.28
2019-04-05T14:16:31.415Z,96782.84
2019-04-05T14:19:03.060Z,96783.20
2019-04-05T14:21:40.230Z,96773.91
2019-04-05T14:24:06.791Z,96778.56
2019-04-05T14:26:37.955Z,96773.81
2019-04-05T14:29:08.924Z,96776.86
2019-04-05T14:31:42.772Z,96771.30
2019-04-05T14:34:13.882Z,96774.50
2019-04-05T14:36:45.166Z,96775.95
2019-04-05T14:39:16.304Z,96769.63
2019-04-05T14:41:47.352Z,96772.19
2019-04-05T14:44:18.400Z,96775.23
2019-04-05T14:46:51.403Z,96765.66
2019-04-05T14:49:22.426Z,96766.24
2019-04-05T14:51:56.567Z,96764.14
2019-04-05T14:54:27.091Z,96762.52
2019-04-05T14:57:02.442Z,96767.33
2019-04-05T14:59:32.794Z,96761.05
2019-04-05T15:02:06.983Z,96760.36
2019-04-05T15:04:39.680Z,96764.50
2019-04-05T15:07:10.775Z,96761.63
2019-04-05T15:09:45.414Z,96753.73
2019-04-05T15:12:16.345Z,96753.27
2019-04-05T15:14:47.437Z,96749.13
2019-04-05T15:17:18.372Z,96754.39
2019-04-05T15:19:49.333Z,96758.07
2019-04-05T15:22:20.234Z,96753.67
2019-04-05T15:24:51.287Z,96754.87
2019-04-05T15:27:22.413Z,96751.92
2019-04-05T15:29:55.602Z,96747.85
2019-04-05T15:32:26.670Z,96753.59
2019-04-05T15:34:59.002Z,96746.46
2019-04-05T15:37:32.486Z,96747.13
2019-04-05T15:40:02.971Z,96752.17
2019-04-05T15:42:33.957Z,96749.45
2019-04-05T15:45:10.147Z,96744.23
2019-04-05T15:47:41.209Z,96740.16
2019-04-05T15:50:12.456Z,96740.64
2019-04-05T15:52:44.141Z,96741.72
2019-04-05T15:55:16.041Z,96742.53
2019-04-05T15:57:47.018Z,96742.17
2019-04-05T16:00:21.106Z,96740.53
2019-04-05T16:02:52.307Z,96738.87
2019-04-05T16:05:23.387Z,96741.84
2019-04-05T16:07:54.489Z,96745.77
2019-04-05T16:10:25.655Z,96747.52
2019-04-05T16:12:56.651Z,96746.35
2019-04-05T16:15:27.710Z,96742.31
2019-04-05T16:17:58.899Z,96743.34
2019-04-05T16:20:29.910Z,96734.64
2019-04-05T16:23:01.013Z,96737.80
2019-04-05T16:25:32.596Z,96732.91
2019-04-05T16:28:03.602Z,96731.99
2019-04-05T16:30:34.568Z,96733.49
2019-04-05T16:33:05.697Z,96725.63
2019-04-05T16:35:36.659Z,96721.42
2019-04-05T16:38:07.723Z,96723.48
2019-04-05T16:40:39.351Z,96724.04
2019-04-05T16:43:10.346Z,96719.62
2019-04-05T16:45:41.403Z,96720.48
2019-04-05T16:48:12.563Z,96726.55
2019-04-05T16:50:43.512Z,96725.72
2019-04-05T16:53:14.539Z,96722.78
2019-04-05T16:55:45.574Z,96723.33
2019-04-05T16:58:16.530Z,96724.66
2019-04-05T17:00:47.656Z,96719.67
2019-04-05T17:03:20.347Z,96726.83
2019-04-05T17:05:51.288Z,96732.17
2019-04-05T17:08:22.233Z,96734.80
2019-04-05T17:10:53.250Z,96733.67
2019-04-05T17:13:24.453Z,96733.91
2019-04-05T17:15:55.496Z,96738.61
2019-04-05T17:18:26.531Z,96741.02
2019-04-05T17:20:57.541Z,96738.53
2019-04-05T17:23:33.136Z,96732.28
2019-04-05T17:26:04.193Z,96738.37
2019-04-05T17:28:38.390Z,96737.91
2019-04-05T17:31:09.628Z,96733.56
2019-04-05T17:33:40.758Z,96727.98
2019-04-05T17:36:11.882Z,96732.66
2019-04-05T17:38:44.179Z,96732.00
2019-04-05T17:41:15.136Z,96733.34
2019-04-05T17:43:46.108Z,96742.38
2019-04-05T17:46:18.666Z,96742.38
2019-04-05T17:48:51.740Z,96739.47
2019-04-05T17:51:22.569Z,96743.12
2019-04-05T17:53:53.773Z,96741.11
2019-04-05T17:56:28.679Z,96744.86
2019-04-05T17:58:59.786Z,96750.91
2019-04-05T18:01:31.910Z,96747.39
2019-04-05T18:04:03.039Z,96745.37
2019-04-05T18:06:35.970Z,96745.57
2019-04-05T18:09:07.650Z,96754.48
2019-04-05T18:11:41.839Z,96756.84
2019-04-05T18:14:12.997Z,96757.83
2019-04-05T18:16:44.074Z,96762.87
2019-04-05T18:19:15.060Z,96765.82
2019-04-05T18:21:49.258Z,96770.40
2019-04-05T18:24:21.928Z,96766.95
2019-04-05T18:26:54.156Z,96773.55
2019-04-05T18:29:27.490Z,96774.69
2019-04-05T18:31:59.483Z,96779.14
2019-04-05T18:34:35.088Z,96771.52
2019-04-05T18:37:07.348Z,96767.79
2019-04-05T18:39:40.106Z,96768.80
2019-04-05T18:42:12.466Z,96780.86
2019-04-05T18:44:45.247Z,96787.27
2019-04-05T18:47:18.342Z,96795.59
2019-04-05T18:50:02.403Z,96802.08
2019-04-05T18:52:25.920Z,96800.72
2019-04-05T18:54:59.659Z,96804.98
2019-04-05T18:57:30.604Z,96807.63
2019-04-05T19:00:01.589Z,96807.91
2019-04-05T19:02:34.105Z,96806.58
2019-04-05T19:05:06.859Z,96809.34
2019-04-05T19:07:37.756Z,96811.63
2019-04-05T19:10:11.120Z,96813.39
2019-04-05T19:12:42.279Z,96813.36
2019-04-05T19:15:16.533Z,96816.15
2019-04-05T19:17:47.510Z,96816.47
2019-04-05T19:20:20.318Z,96818.83
2019-04-05T19:22:51.254Z,96822.67
2019-04-05T19:25:23.901Z,96825.95
2019-04-05T19:27:54.771Z,96825.06
2019-04-05T19:50:59.130Z,96839.57
2019-04-05T19:53:30.189Z,96837.86
2019-04-05T19:56:01.192Z,96841.34
2019-04-05T19:58:32.391Z,96841.47
2019-04-05T20:01:03.418Z,96841.05
2019-04-05T20:03:34.464Z,96836.20
2019-04-05T20:06:07.722Z,96839.06
2019-04-05T20:08:38.266Z,96843.95
2019-04-05T20:11:09.281Z,96842.81
2019-04-05T20:13:40.402Z,96845.41
2019-04-05T20:16:11.388Z,96833.27
2019-04-05T20:18:42.506Z,96841.52
2019-04-05T20:21:13.417Z,96838.80
2019-04-05T20:23:47.726Z,96843.17
2019-04-05T20:26:17.314Z,96842.84
2019-04-05T20:28:48.307Z,96848.41
2019-04-05T20:31:19.359Z,96844.91
2019-04-05T20:33:50.353Z,96851.47
2019-04-05T20:36:21.412Z,96848.29
2019-04-05T20:38:52.395Z,96845.69
2019-04-05T20:41:23.393Z,96848.14
2019-04-05T20:43:54.300Z,96848.88
2019-04-05T20:46:25.282Z,96852.03
2019-04-05T20:48:56.339Z,96852.11
2019-04-05T20:51:27.446Z,96853.33
2019-04-05T20:53:58.353Z,96858.34
2019-04-05T20:56:29.486Z,96861.66
2019-04-05T20:59:00.420Z,96856.73
2019-04-05T21:01:31.403Z,96859.33
2019-04-05T21:04:02.377Z,96849.97
2019-04-05T21:06:33.789Z,96855.23
2019-04-05T21:09:07.318Z,96854.91
2019-04-05T21:11:38.739Z,96866.77
2019-04-05T21:14:10.147Z,96861.41
2019-04-05T21:16:45.098Z,96861.16
2019-04-05T21:19:16.295Z,96866.83
2019-04-05T21:21:47.301Z,96863.41
2019-04-05T21:24:18.198Z,96862.12
2019-04-05T21:26:49.151Z,96856.70
2019-04-05T21:29:20.163Z,96850.25
2019-04-05T21:31:51.217Z,96860.98
2019-04-05T21:34:22.202Z,96869.00
2019-04-05T21:36:53.214Z,96868.69
2019-04-05T21:39:24.172Z,96865.73
2019-04-05T21:41:55.064Z,96869.30
2019-04-05T21:44:26.195Z,96867.84
2019-04-05T21:46:57.134Z,96866.72
2019-04-05T21:49:28.020Z,96879.65
2019-04-05T21:51:59.128Z,96874.17
2019-04-05T21:54:30.060Z,96874.70
2019-04-05T21:57:01.063Z,96876.45
2019-04-05T21:59:32.004Z,96875.61
2019-04-05T22:02:03.246Z,96877.71
2019-04-05T22:04:34.128Z,96883.63
2019-04-05T22:07:05.174Z,96882.23
2019-04-05T22:09:36.110Z,96885.02
2019-04-05T22:12:07.064Z,96880.23
2019-04-05T22:14:38.066Z,96880.39
2019-04-05T22:17:09.164Z,96881.88
2019-04-05T22:19:40.149Z,96884.04
2019-04-05T22:22:11.244Z,96881.73
2019-04-05T22:24:42.207Z,96875.87
2019-04-05T22:27:13.144Z,96880.39
2019-04-05T22:29:44.194Z,96878.93
2019-04-05T22:32:15.190Z,96877.65
2019-04-05T22:34:46.168Z,96878.70
2019-04-05T22:37:17.076Z,96880.69
2019-04-05T22:39:47.970Z,96882.20
2019-04-05T22:42:18.924Z,96884.58
2019-04-05T22:44:50.047Z,96880.88
2019-04-05T22:47:21.192Z,96885.53
2019-04-05T22:49:52.186Z,96882.95
2019-04-05T22:52:23.652Z,96883.67
2019-04-05T22:54:54.720Z,96889.95
2019-04-05T22:57:25.781Z,96893.28
2019-04-05T22:59:56.889Z,96885.41
2019-04-05T23:02:27.994Z,96895.50
2019-04-05T23:05:00.914Z,96888.65
2019-04-05T23:07:31.707Z,96887.94
2019-04-05T23:10:02.925Z,96897.16
2019-04-05T23:12:33.906Z,96893.50
2019-04-05T23:15:07.207Z,96889.74
2019-04-05T23:17:38.294Z,96892.51
2019-04-05T23:20:09.720Z,96893.11
2019-04-05T23:22:40.886Z,96893.95
2019-04-05T23:25:21.465Z,96897.11
2019-04-05T23:27:44.563Z,96890.25
2019-04-05T23:30:16.361Z,96894.40
2019-04-05T23:32:47.403Z,96894.58
2019-04-05T23:35:18.446Z,96897.31
2019-04-05T23:37:49.750Z,96892.71
2019-04-05T23:40:20.871Z,96893.48
2019-04-05T23:42:52.141Z,96883.98
2019-04-05T23:45:23.062Z,96888.38
2019-04-05T23:47:54.055Z,96889.70
2019-04-05T23:50:25.051Z,96883.61
2019-04-05T23:52:56.001Z,96891.45
2019-04-05T23:55:33.133Z,96893.89
2019-04-05T23:57:59.803Z,96897.65
